createdAt,value
2022-12-11T00:00:56.851Z,20.63
2022-12-11T00:03:23.643Z,20.17
2022-12-11T00:05:50.344Z,20.23
2022-12-11T00:08:19.533Z,20.02
2022-12-11T00:10:52.421Z,20.25
2022-12-11T00:13:21.283Z,19.60
2022-12-11T00:15:47.967Z,19.05
2022-12-11T00:18:16.881Z,19.25
2022-12-11T00:20:43.885Z,20.50
2022-12-11T00:23:13.353Z,19.65
2022-12-11T00:25:45.485Z,20.63
2022-12-11T00:28:18.915Z,20.10
2022-12-11T00:30:46.137Z,21.63
2022-12-11T00:33:14.076Z,21.45
2022-12-11T00:35:44.797Z,22.20
2022-12-11T00:38:20.149Z,20.08
2022-12-11T00:40:47.097Z,22.45
2022-12-11T00:43:14.973Z,21.30
2022-12-11T00:45:46.684Z,21.60
2022-12-11T00:48:13.775Z,29.05
2022-12-11T00:50:40.913Z,27.88
2022-12-11T00:53:07.664Z,20.55
2022-12-11T00:55:38.962Z,19.50
2022-12-11T00:58:08.187Z,14.52
2022-12-11T01:00:35.216Z,19.73
2022-12-11T01:03:04.811Z,21.33
2022-12-11T01:05:32.144Z,19.88
2022-12-11T01:08:01.467Z,22.50
2022-12-11T01:10:28.666Z,19.90
2022-12-11T01:13:01.732Z,19.48
2022-12-11T01:15:31.563Z,19.38
2022-12-11T01:17:58.803Z,19.58
2022-12-11T01:20:27.899Z,18.52
2022-12-11T01:22:56.145Z,19.13
2022-12-11T01:25:23.834Z,17.60
2022-12-11T01:27:54.586Z,18.85
2022-12-11T01:30:22.974Z,18.10
2022-12-11T01:32:49.779Z,18.45
2022-12-11T01:35:19.381Z,18.52
2022-12-11T01:37:48.777Z,17.52
2022-12-11T01:40:19.114Z,18.25
2022-12-11T01:42:46.150Z,17.77
2022-12-11T01:45:44.774Z,18.25
2022-12-11T01:48:23.579Z,17.17
2022-12-11T01:51:03.370Z,18.25
2022-12-11T01:53:38.542Z,17.20
2022-12-11T01:56:08.761Z,18.67
2022-12-11T01:58:44.001Z,16.70
2022-12-11T02:01:14.685Z,16.75
2022-12-11T02:03:41.470Z,16.80
2022-12-11T02:06:35.846Z,15.70
2022-12-11T02:09:08.934Z,15.50
2022-12-11T02:11:51.918Z,15.45
2022-12-11T02:14:43.186Z,13.95
2022-12-11T02:17:47.899Z,13.00
2022-12-11T02:20:37.979Z,12.70
2022-12-11T02:23:13.620Z,11.45
2022-12-11T02:26:05.067Z,10.38
2022-12-11T02:28:45.604Z,8.70
2022-12-11T02:32:00.319Z,9.27
2022-12-11T02:34:32.792Z,8.55
2022-12-11T02:37:06.296Z,7.38
2022-12-11T02:39:38.580Z,6.90
2022-12-11T02:42:06.736Z,7.53
2022-12-11T02:44:37.040Z,6.47
2022-12-11T02:47:07.448Z,6.68
2022-12-11T02:49:37.282Z,6.10
2022-12-11T02:52:06.328Z,5.43
2022-12-11T02:54:37.624Z,6.93
2022-12-11T02:57:08.655Z,6.40
2022-12-11T02:59:46.546Z,5.90
2022-12-11T03:02:15.732Z,5.50
2022-12-11T03:04:45.538Z,8.57
2022-12-11T03:07:18.879Z,6.93
2022-12-11T03:09:47.634Z,6.13
2022-12-11T03:12:22.691Z,6.07
2022-12-11T03:14:50.210Z,5.85
2022-12-11T03:17:35.885Z,5.63
2022-12-11T03:20:29.745Z,5.75
2022-12-11T03:23:14.403Z,6.25
2022-12-11T03:26:01.408Z,5.88
2022-12-11T03:28:45.633Z,5.32
2022-12-11T03:31:45.393Z,6.43
2022-12-11T03:34:19.649Z,6.35
2022-12-11T03:36:49.885Z,5.53
2022-12-11T03:39:33.487Z,5.68
2022-12-11T03:42:05.880Z,6.43
2022-12-11T03:44:34.988Z,5.72
2022-12-11T03:47:08.606Z,6.22
2022-12-11T03:49:40.080Z,6.18
2022-12-11T03:52:09.552Z,6.47
2022-12-11T03:54:37.970Z,6.30
2022-12-11T03:57:05.971Z,6.38
2022-12-11T03:59:35.212Z,6.60
2022-12-11T04:02:01.950Z,7.10
2022-12-11T04:04:28.643Z,7.00
2022-12-11T04:06:55.361Z,6.85
2022-12-11T04:09:22.070Z,7.25
2022-12-11T04:11:48.752Z,7.85
2022-12-11T04:14:34.128Z,7.78
2022-12-11T04:17:03.846Z,7.35
2022-12-11T04:19:51.392Z,7.15
2022-12-11T04:22:37.503Z,7.38
2022-12-11T04:25:07.241Z,6.43
2022-12-11T04:27:51.242Z,7.65
2022-12-11T04:30:33.762Z,7.32
2022-12-11T04:33:04.440Z,6.57
2022-12-11T04:35:31.444Z,7.72
2022-12-11T04:37:58.695Z,7.57
2022-12-11T04:40:25.602Z,7.25
2022-12-11T04:42:52.343Z,7.43
2022-12-11T04:45:23.581Z,7.97
2022-12-11T04:47:52.455Z,8.45
2022-12-11T04:50:19.251Z,7.72
2022-12-11T04:52:46.033Z,8.88
2022-12-11T04:55:13.551Z,8.75
2022-12-11T04:57:40.722Z,8.20
2022-12-11T05:00:15.126Z,8.55
2022-12-11T05:02:44.363Z,6.95
2022-12-11T05:05:14.288Z,8.15
2022-12-11T05:07:42.091Z,8.05
2022-12-11T05:10:09.696Z,8.75
2022-12-11T05:12:36.486Z,9.55
2022-12-11T05:15:03.462Z,8.73
2022-12-11T05:17:30.163Z,8.27
2022-12-11T05:19:59.272Z,8.75
2022-12-11T05:22:25.953Z,7.32
2022-12-11T05:24:52.686Z,8.50
2022-12-11T05:27:19.419Z,9.38
2022-12-11T05:29:46.174Z,8.35
2022-12-11T05:32:12.895Z,8.77
2022-12-11T05:34:39.719Z,8.93
2022-12-11T05:37:06.599Z,9.40
2022-12-11T05:39:38.340Z,8.88
2022-12-11T05:42:05.247Z,9.75
2022-12-11T05:44:32.057Z,9.40
2022-12-11T05:46:58.823Z,9.70
2022-12-11T05:49:30.693Z,9.73
2022-12-11T05:51:57.790Z,10.05
2022-12-11T05:54:24.614Z,9.48
2022-12-11T05:56:53.948Z,11.32
2022-12-11T05:59:23.178Z,11.32
2022-12-11T06:01:49.998Z,11.85
2022-12-11T06:04:16.798Z,9.68
2022-12-11T06:06:46.626Z,10.35
2022-12-11T06:09:17.655Z,10.15
2022-12-11T06:11:46.469Z,9.73
2022-12-11T06:14:13.909Z,9.80
2022-12-11T06:16:40.946Z,10.32
2022-12-11T06:19:18.593Z,10.77
2022-12-11T06:21:46.515Z,11.05
2022-12-11T06:24:15.342Z,8.95
2022-12-11T06:26:42.043Z,10.15
2022-12-11T06:29:13.068Z,10.32
2022-12-11T06:31:40.164Z,10.70
2022-12-11T06:34:06.966Z,9.73
2022-12-11T06:36:34.385Z,8.52
2022-12-11T06:39:01.086Z,10.00
2022-12-11T06:41:27.814Z,11.48
2022-12-11T06:43:54.502Z,11.57
2022-12-11T06:46:24.006Z,11.38
2022-12-11T06:48:50.755Z,11.98
2022-12-11T06:51:20.552Z,11.85
2022-12-11T06:53:54.435Z,12.05
2022-12-11T06:56:21.747Z,11.27
2022-12-11T06:58:48.530Z,11.73
2022-12-11T07:01:19.648Z,11.65
2022-12-11T07:03:49.354Z,11.35
2022-12-11T07:06:16.571Z,11.10
2022-12-11T07:08:43.614Z,10.38
2022-12-11T07:11:15.146Z,12.00
2022-12-11T07:13:44.667Z,10.35
2022-12-11T07:16:14.161Z,10.50
2022-12-11T07:18:42.937Z,10.70
2022-12-11T07:21:13.066Z,10.75
2022-12-11T07:23:42.317Z,11.70
2022-12-11T07:26:15.389Z,12.68
2022-12-11T07:28:42.773Z,12.48
2022-12-11T07:31:12.842Z,11.45
2022-12-11T07:33:39.836Z,12.75
2022-12-11T07:36:08.159Z,12.63
2022-12-11T07:38:35.523Z,12.32
2022-12-11T07:41:05.891Z,31.15
2022-12-11T07:43:33.838Z,17.20
2022-12-11T07:46:24.451Z,14.32
2022-12-11T07:48:53.906Z,14.07
2022-12-11T07:51:30.033Z,13.82
2022-12-11T07:54:01.146Z,11.35
2022-12-11T07:56:29.704Z,12.27
2022-12-11T07:58:58.734Z,17.80
2022-12-11T08:01:28.287Z,13.68
2022-12-11T08:03:56.249Z,13.73
2022-12-11T08:06:29.657Z,12.10
2022-12-11T08:08:57.790Z,11.30
2022-12-11T08:11:25.930Z,14.23
2022-12-11T08:13:52.766Z,12.98
2022-12-11T08:16:19.839Z,13.55
2022-12-11T08:18:48.396Z,12.98
2022-12-11T08:21:20.731Z,12.88
2022-12-11T08:23:50.724Z,13.10
2022-12-11T08:26:23.935Z,12.30
2022-12-11T08:28:50.686Z,10.68
2022-12-11T08:31:20.681Z,12.63
2022-12-11T08:33:48.865Z,12.25
2022-12-11T08:36:19.229Z,11.88
2022-12-11T08:38:46.849Z,12.02
2022-12-11T08:41:23.163Z,10.85
2022-12-11T08:43:54.794Z,13.15
2022-12-11T08:46:27.797Z,11.45
2022-12-11T08:48:57.965Z,12.27
2022-12-11T08:51:27.179Z,12.05
2022-12-11T08:53:56.563Z,10.75
2022-12-11T08:56:26.367Z,13.98
2022-12-11T08:58:53.850Z,13.10
2022-12-11T09:01:25.917Z,12.93
2022-12-11T09:03:54.275Z,13.05
2022-12-11T09:06:23.301Z,12.77
2022-12-11T09:08:53.098Z,12.25
2022-12-11T09:11:33.167Z,12.77
2022-12-11T09:14:06.718Z,13.10
2022-12-11T09:16:40.208Z,13.63
2022-12-11T09:19:18.569Z,13.52
2022-12-11T09:21:45.428Z,11.88
2022-12-11T09:24:15.564Z,13.38
2022-12-11T09:26:42.560Z,12.02
2022-12-11T09:29:15.464Z,13.70
2022-12-11T09:31:42.296Z,12.23
2022-12-11T09:34:11.957Z,13.55
2022-12-11T09:36:40.664Z,12.10
2022-12-11T09:39:17.132Z,12.77
2022-12-11T09:41:49.793Z,11.88
2022-12-11T09:44:28.416Z,12.23
2022-12-11T09:46:55.227Z,12.02
2022-12-11T09:49:36.122Z,11.02
2022-12-11T09:52:29.037Z,13.07
2022-12-11T09:55:13.041Z,12.20
2022-12-11T09:57:55.209Z,11.80
2022-12-11T10:00:41.711Z,12.18
2022-12-11T10:03:27.035Z,12.00
2022-12-11T10:06:23.319Z,12.68
2022-12-11T10:08:56.231Z,12.93
2022-12-11T10:11:58.530Z,11.80
2022-12-11T10:14:43.865Z,11.55
2022-12-11T10:17:25.552Z,12.43
2022-12-11T10:19:53.450Z,12.50
2022-12-11T10:22:28.213Z,12.95
2022-12-11T10:25:11.136Z,11.68
2022-12-11T10:27:45.169Z,14.13
2022-12-11T10:30:19.478Z,14.15
2022-12-11T10:33:16.838Z,12.38
2022-12-11T10:35:55.583Z,12.55
2022-12-11T10:38:31.937Z,13.93
2022-12-11T10:41:05.187Z,14.18
2022-12-11T10:43:42.399Z,17.83
2022-12-11T10:46:28.241Z,11.98
2022-12-11T10:48:56.256Z,11.65
2022-12-11T10:51:26.238Z,12.55
2022-12-11T10:54:02.651Z,12.48
2022-12-11T10:56:35.503Z,12.70
2022-12-11T10:59:02.371Z,12.13
2022-12-11T11:01:31.279Z,12.23
2022-12-11T11:04:14.526Z,11.13
2022-12-11T11:06:44.522Z,11.48
2022-12-11T11:09:43.851Z,10.75
2022-12-11T11:12:27.645Z,12.15
2022-12-11T11:15:28.226Z,12.02
2022-12-11T11:18:06.066Z,11.23
2022-12-11T11:20:34.822Z,12.00
2022-12-11T11:23:12.233Z,10.70
2022-12-11T11:25:39.070Z,10.55
2022-12-11T11:28:15.595Z,10.90
2022-12-11T11:30:54.361Z,10.85
2022-12-11T11:33:26.752Z,9.65
2022-12-11T11:36:02.887Z,10.07
2022-12-11T11:38:35.159Z,11.40
2022-12-11T11:41:19.025Z,10.90
2022-12-11T11:43:51.096Z,10.00
2022-12-11T11:46:23.049Z,12.70
2022-12-11T11:51:47.095Z,10.25
2022-12-11T11:54:29.400Z,10.60
2022-12-11T11:56:57.177Z,11.32
2022-12-11T11:59:49.566Z,10.25
2022-12-11T12:02:18.865Z,10.27
2022-12-11T12:04:51.248Z,10.35
2022-12-11T12:07:26.539Z,10.43
2022-12-11T12:10:27.833Z,10.05
2022-12-11T12:13:00.820Z,11.60
2022-12-11T12:16:00.747Z,11.15
2022-12-11T12:18:39.391Z,10.80
2022-12-11T12:21:30.620Z,10.30
2022-12-11T12:24:18.581Z,10.85
2022-12-11T12:27:03.021Z,9.23
2022-12-11T12:29:57.919Z,9.90
2022-12-11T12:32:39.551Z,10.98
2022-12-11T12:35:18.465Z,9.77
2022-12-11T12:37:57.266Z,9.55
2022-12-11T12:40:36.344Z,10.50
2022-12-11T12:43:35.406Z,10.32
2022-12-11T12:46:11.006Z,9.55
2022-12-11T12:48:37.960Z,8.82
2022-12-11T12:51:07.708Z,9.15
2022-12-11T12:53:37.427Z,9.90
2022-12-11T12:56:08.259Z,10.20
2022-12-11T12:58:34.961Z,10.50
2022-12-11T13:01:26.065Z,11.18
2022-12-11T13:03:55.781Z,11.00
2022-12-11T13:06:50.148Z,10.38
2022-12-11T13:09:23.837Z,11.25
2022-12-11T13:11:57.790Z,10.32
2022-12-11T13:14:31.887Z,11.13
2022-12-11T13:17:37.520Z,12.45
2022-12-11T13:20:18.053Z,11.63
2022-12-11T13:22:56.283Z,12.38
2022-12-11T13:25:25.059Z,12.15
2022-12-11T13:27:54.100Z,11.25
2022-12-11T13:30:22.367Z,11.38
2022-12-11T13:33:18.415Z,11.13
2022-12-11T13:35:49.553Z,10.45
2022-12-11T13:38:20.825Z,8.95
2022-12-11T13:40:54.322Z,11.10
2022-12-11T13:43:29.679Z,12.32
2022-12-11T13:46:02.008Z,11.65
2022-12-11T13:48:48.692Z,12.70
2022-12-11T13:51:23.887Z,10.57
2022-12-11T13:54:03.543Z,11.77
2022-12-11T13:56:30.342Z,11.02
2022-12-11T13:58:57.000Z,11.40
2022-12-11T14:01:29.976Z,10.70
2022-12-11T14:04:04.784Z,11.40
2022-12-11T14:06:34.591Z,11.05
2022-12-11T14:09:05.628Z,12.65
2022-12-11T14:11:42.451Z,11.43
2022-12-11T14:14:22.695Z,14.80
2022-12-11T14:16:52.909Z,11.57
2022-12-11T14:19:24.865Z,11.77
2022-12-11T14:24:24.783Z,10.70
2022-12-11T14:26:52.964Z,12.20
2022-12-11T14:29:33.724Z,13.88
2022-12-11T14:32:06.287Z,13.80
2022-12-11T14:34:39.778Z,13.15
2022-12-11T14:37:10.332Z,13.10
2022-12-11T14:39:55.258Z,13.07
2022-12-11T14:42:29.781Z,12.98
2022-12-11T14:45:23.070Z,13.65
2022-12-11T14:47:53.886Z,12.57
2022-12-11T14:50:38.095Z,12.25
2022-12-11T14:53:13.572Z,11.98
2022-12-11T14:55:41.254Z,12.20
2022-12-11T14:58:17.827Z,14.00
2022-12-11T15:00:56.205Z,14.70
2022-12-11T15:03:29.976Z,12.10
2022-12-11T15:05:58.133Z,12.88
2022-12-11T15:08:32.463Z,13.35
2022-12-11T15:11:18.714Z,12.43
2022-12-11T15:13:56.752Z,13.00
2022-12-11T15:16:28.406Z,13.68
2022-12-11T15:18:58.767Z,13.27
2022-12-11T15:21:31.010Z,12.70
2022-12-11T15:23:59.931Z,11.43
2022-12-11T15:26:39.551Z,12.10
2022-12-11T15:29:30.375Z,12.13
2022-12-11T15:32:02.875Z,12.13
2022-12-11T15:34:37.095Z,12.45
2022-12-11T15:37:06.055Z,12.27
2022-12-11T15:39:32.810Z,12.35
2022-12-11T15:42:02.276Z,11.77
2022-12-11T15:44:29.098Z,11.85
2022-12-11T15:46:55.857Z,12.05
2022-12-11T15:49:24.566Z,13.10
2022-12-11T15:51:55.914Z,13.27
2022-12-11T15:54:22.632Z,12.00
2022-12-11T15:56:51.522Z,12.52
2022-12-11T15:59:25.358Z,14.25
2022-12-11T16:01:52.089Z,11.65
2022-12-11T16:04:18.822Z,10.88
2022-12-11T16:06:49.958Z,12.55
2022-12-11T16:09:16.747Z,10.17
2022-12-11T16:11:43.408Z,13.18
2022-12-11T16:14:10.108Z,10.52
2022-12-11T16:16:36.897Z,12.85
2022-12-11T16:19:03.676Z,12.05
2022-12-11T16:21:32.891Z,11.80
2022-12-11T16:23:59.640Z,11.48
2022-12-11T16:26:27.183Z,11.85
2022-12-11T16:28:55.999Z,10.77
2022-12-11T16:31:22.978Z,9.85
2022-12-11T16:33:49.892Z,11.88
2022-12-11T16:36:22.128Z,13.63
2022-12-11T16:38:53.619Z,10.70
2022-12-11T16:43:52.522Z,11.50
2022-12-11T16:46:22.906Z,12.48
2022-12-11T16:48:52.698Z,11.23
2022-12-11T16:51:19.519Z,11.38
2022-12-11T16:53:46.570Z,17.90
2022-12-11T16:56:13.305Z,16.90
2022-12-11T16:58:40.722Z,13.43
2022-12-11T17:01:15.415Z,12.23
2022-12-11T17:03:44.727Z,11.02
2022-12-11T17:06:17.769Z,10.75
2022-12-11T17:08:45.082Z,12.75
2022-12-11T17:11:17.722Z,11.95
2022-12-11T17:13:47.178Z,10.88
2022-12-11T17:16:17.434Z,10.77
2022-12-11T17:18:44.507Z,11.60
2022-12-11T17:21:13.864Z,12.43
2022-12-11T17:23:45.853Z,10.05
2022-12-11T17:28:45.008Z,10.98
2022-12-11T17:31:17.325Z,12.55
2022-12-11T17:33:48.194Z,11.13
2022-12-11T17:36:17.255Z,11.80
2022-12-11T17:38:46.954Z,8.60
2022-12-11T17:41:20.778Z,9.90
2022-12-11T17:43:49.821Z,9.25
2022-12-11T17:46:17.091Z,10.27
2022-12-11T17:48:43.885Z,10.60
2022-12-11T17:51:13.352Z,9.75
2022-12-11T17:53:42.787Z,10.77
2022-12-11T17:56:12.190Z,10.80
2022-12-11T17:58:41.878Z,9.55
2022-12-11T18:01:13.147Z,10.45
2022-12-11T18:03:42.759Z,10.75
2022-12-11T18:06:12.752Z,8.73
2022-12-11T18:08:42.767Z,9.00
2022-12-11T18:11:15.754Z,10.02
2022-12-11T18:13:45.976Z,10.27
2022-12-11T18:16:30.050Z,8.18
2022-12-11T18:18:56.989Z,9.38
2022-12-11T18:21:30.845Z,8.93
2022-12-11T18:24:00.923Z,8.32
2022-12-11T18:26:32.361Z,9.77
2022-12-11T18:29:01.311Z,9.68
2022-12-11T18:31:30.859Z,9.10
2022-12-11T18:33:57.948Z,9.13
2022-12-11T18:36:24.738Z,9.27
2022-12-11T18:38:55.957Z,9.68
2022-12-11T18:41:29.907Z,8.60
2022-12-11T18:43:56.684Z,9.65
2022-12-11T18:46:28.064Z,10.38
2022-12-11T18:48:57.238Z,11.10
2022-12-11T18:51:24.538Z,11.00
2022-12-11T18:53:51.958Z,10.85
2022-12-11T18:56:24.400Z,9.85
2022-12-11T18:58:53.802Z,10.50
2022-12-11T19:01:29.138Z,10.38
2022-12-11T19:04:03.565Z,9.80
2022-12-11T19:06:35.850Z,9.07
2022-12-11T19:09:08.900Z,10.63
2022-12-11T19:11:38.558Z,10.40
2022-12-11T19:14:07.821Z,10.10
2022-12-11T19:16:43.083Z,9.15
2022-12-11T19:19:22.282Z,10.35
2022-12-11T19:21:52.128Z,12.25
2022-12-11T19:24:21.348Z,11.50
2022-12-11T19:26:50.725Z,11.30
2022-12-11T19:29:28.588Z,10.93
2022-12-11T19:31:55.973Z,11.07
2022-12-11T19:34:25.695Z,10.38
2022-12-11T19:36:54.692Z,10.95
2022-12-11T19:39:21.584Z,10.95
2022-12-11T19:41:50.873Z,12.57
2022-12-11T19:44:22.213Z,11.35
2022-12-11T19:46:51.115Z,13.95
2022-12-11T19:49:18.302Z,11.27
2022-12-11T19:51:45.061Z,13.27
2022-12-11T19:54:14.602Z,10.50
2022-12-11T19:56:41.535Z,10.98
2022-12-11T19:59:14.045Z,11.05
2022-12-11T20:01:47.970Z,10.20
2022-12-11T20:04:16.540Z,10.50
2022-12-11T20:06:57.727Z,11.18
2022-12-11T20:09:26.750Z,12.63
2022-12-11T20:11:53.551Z,12.23
2022-12-11T20:14:24.306Z,11.77
2022-12-11T20:17:11.326Z,11.48
2022-12-11T20:19:42.805Z,11.98
2022-12-11T20:22:10.254Z,12.00
2022-12-11T20:24:39.361Z,12.60
2022-12-11T20:27:06.138Z,13.35
2022-12-11T20:29:35.595Z,13.23
2022-12-11T20:32:02.488Z,11.95
2022-12-11T20:34:31.732Z,13.07
2022-12-11T20:37:00.281Z,14.05
2022-12-11T20:39:32.128Z,14.55
2022-12-11T20:44:55.869Z,14.10
2022-12-11T20:47:22.675Z,14.25
2022-12-11T20:49:50.853Z,14.90
2022-12-11T20:52:18.918Z,15.70
2022-12-11T20:54:49.073Z,14.75
2022-12-11T20:57:18.426Z,16.30
2022-12-11T20:59:45.450Z,15.30
2022-12-11T21:02:13.096Z,15.85
2022-12-11T21:04:41.225Z,16.30
2022-12-11T21:07:11.689Z,15.85
2022-12-11T21:09:39.279Z,16.58
2022-12-11T21:12:06.813Z,14.40
2022-12-11T21:14:36.719Z,12.02
2022-12-11T21:17:05.860Z,16.33
2022-12-11T21:19:35.985Z,14.90
2022-12-11T21:22:07.392Z,15.13
2022-12-11T21:24:34.300Z,15.90
2022-12-11T21:27:01.100Z,13.73
2022-12-11T21:29:29.458Z,15.27
2022-12-11T21:31:59.045Z,16.48
2022-12-11T21:34:28.140Z,13.65
2022-12-11T21:36:57.036Z,14.98
2022-12-11T21:39:26.077Z,15.35
2022-12-11T21:41:55.641Z,15.05
2022-12-11T21:47:11.436Z,12.95
2022-12-11T21:49:38.248Z,15.35
2022-12-11T21:52:08.487Z,14.68
2022-12-11T21:54:38.027Z,15.65
2022-12-11T21:57:10.427Z,15.02
2022-12-11T21:59:44.660Z,13.98
2022-12-11T22:02:11.911Z,13.20
2022-12-11T22:04:43.598Z,12.18
2022-12-11T22:07:12.586Z,12.27
2022-12-11T22:09:39.331Z,14.23
2022-12-11T22:12:08.547Z,12.95
2022-12-11T22:14:37.508Z,14.55
2022-12-11T22:17:04.325Z,14.85
2022-12-11T22:19:33.486Z,14.32
2022-12-11T22:22:00.301Z,13.85
2022-12-11T22:24:29.375Z,12.48
2022-12-11T22:26:56.142Z,15.93
2022-12-11T22:29:22.858Z,13.23
2022-12-11T22:31:59.001Z,14.55
2022-12-11T22:34:25.745Z,15.50
2022-12-11T22:36:59.347Z,15.73
2022-12-11T22:39:28.541Z,14.75
2022-12-11T22:41:55.276Z,13.65
2022-12-11T22:44:24.793Z,13.85
2022-12-11T22:46:51.620Z,15.43
2022-12-11T22:49:19.433Z,15.38
2022-12-11T22:51:49.374Z,16.40
2022-12-11T22:54:18.664Z,14.75
2022-12-11T22:56:47.789Z,14.07
2022-12-11T22:59:15.390Z,14.82
2022-12-11T23:01:42.199Z,16.08
2022-12-11T23:04:13.493Z,14.70
2022-12-11T23:06:42.594Z,14.85
2022-12-11T23:09:10.381Z,16.35
2022-12-11T23:11:38.175Z,16.88
2022-12-11T23:14:09.211Z,15.27
2022-12-11T23:16:38.592Z,14.87
2022-12-11T23:19:08.472Z,15.65
2022-12-11T23:21:38.008Z,16.17
2022-12-11T23:24:05.547Z,16.23
2022-12-11T23:26:34.746Z,14.93
2022-12-11T23:29:02.212Z,15.65
2022-12-11T23:31:30.250Z,14.45
2022-12-11T23:34:02.605Z,14.82
2022-12-11T23:36:31.803Z,15.23
2022-12-11T23:38:58.634Z,16.58
2022-12-11T23:41:31.091Z,14.98
2022-12-11T23:44:00.015Z,16.85
2022-12-11T23:46:26.936Z,16.55
2022-12-11T23:48:56.914Z,14.75
2022-12-11T23:51:27.189Z,16.38
2022-12-11T23:53:54.745Z,15.30
2022-12-11T23:56:27.029Z,16.25
2022-12-11T23:58:57.241Z,13.13
